РПИ Ташкент

Руководство

Evgeny Vygornitsky*

Куратор

Vitaliy Alekseyev

Помощник куратора по Узбекистану
Инструкторы РПИ
Evgeny Vygornitsky (Supervisor)
Vitaliy Alekseyev (Instructor)
Входит в состав
Центральная Азия

Диспетчеры РПИ

Диспетчер Рейтинг Допуски *
Vitaliy Alekseyev Instructor UTTR_CTR
Arman Maxatov Student 2 UTTT_TWR
Timur Gilmanov Student UTTT_GND

Аэропорты РПИ

ICAO Город Название Погода
UTTT Ташкент Ташкент UTTT 100930Z 18004KT 140V210 2400 FU NSC M02/M07 Q1033 R08L/CLRD70 NOSIG
UTNU Ургенч Ургенч UTNU 100930Z 05014KT CAVOK M03/M17 Q1036 R13/CLRD70 NOSIG
UTFA Андижан Андижан UTFA 100730Z VRB02KT 3700 BR BKN013 M01/M04 Q1035 R88/09//70
UTFN Наманган Наманган UTFN 100930Z 00000KT 2300 BR OVC008 M02/M04 Q1033 R28/CLRD70 NOSIG
UTNN Нукус Нукус UTNN 100930Z 05012KT CAVOK M06/M18 Q1039 R15/CLRD60 NOSIG
UTFF Фергана Фергана UTFF 100930Z 16004KT 7000 BKN022 01/M04 Q1032 R18/CLRD70